createdAt,value
2023-11-09T00:02:26.513Z,101591.34
2023-11-09T00:04:53.574Z,101595.16
2023-11-09T00:07:25.303Z,101594.22
2023-11-09T00:10:14.237Z,101594.53
2023-11-09T00:12:54.851Z,101585.28
2023-11-09T00:15:22.145Z,101576.78
2023-11-09T00:17:50.305Z,101575.72
2023-11-09T00:20:21.953Z,101578.00
2023-11-09T00:22:49.912Z,101583.25
2023-11-09T00:25:18.870Z,101585.25
2023-11-09T00:27:45.963Z,101584.19
2023-11-09T00:30:13.291Z,101575.59
2023-11-09T00:32:40.451Z,101569.88
2023-11-09T00:35:10.434Z,101573.28
2023-11-09T00:37:38.868Z,101564.34
2023-11-09T00:40:11.985Z,101566.81
2023-11-09T00:42:39.920Z,101564.50
2023-11-09T00:45:08.269Z,101569.09
2023-11-09T00:47:55.232Z,101569.38
2023-11-09T00:50:35.791Z,101573.03
2023-11-09T00:53:23.197Z,101562.94
2023-11-09T00:56:24.135Z,101559.25
2023-11-09T00:59:05.021Z,101562.19
2023-11-09T01:01:31.930Z,101559.91
2023-11-09T01:04:19.395Z,101567.75
2023-11-09T01:07:20.202Z,101553.25
2023-11-09T01:10:01.332Z,101547.31
2023-11-09T01:12:28.679Z,101543.38
2023-11-09T01:14:56.147Z,101556.56
2023-11-09T01:17:23.117Z,101549.50
2023-11-09T01:19:50.163Z,101545.66
2023-11-09T01:22:17.816Z,101553.81
2023-11-09T01:24:44.842Z,101547.06
2023-11-09T01:27:11.916Z,101538.41
2023-11-09T01:29:39.271Z,101537.03
2023-11-09T01:32:06.453Z,101539.72
2023-11-09T01:34:33.637Z,101551.56
2023-11-09T01:37:01.654Z,101543.91
2023-11-09T01:39:28.606Z,101540.91
2023-11-09T01:41:55.669Z,101545.53
2023-11-09T01:44:22.613Z,101543.16
2023-11-09T01:46:54.608Z,101544.84
2023-11-09T01:49:22.041Z,101534.50
2023-11-09T01:51:50.324Z,101533.09
2023-11-09T01:54:20.008Z,101532.00
2023-11-09T01:56:47.660Z,101534.34
2023-11-09T01:59:35.210Z,101518.66
2023-11-09T02:02:36.198Z,101514.97
2023-11-09T02:05:37.283Z,101511.13
2023-11-09T02:08:19.516Z,101512.94
2023-11-09T02:10:47.083Z,101511.06
2023-11-09T02:13:14.212Z,101511.69
2023-11-09T02:15:41.262Z,101508.94
2023-11-09T02:18:08.309Z,101510.66
2023-11-09T02:20:37.546Z,101508.31
2023-11-09T02:23:06.935Z,101501.53
2023-11-09T02:25:34.051Z,101506.59
2023-11-09T02:28:01.987Z,101503.22
2023-11-09T02:30:29.400Z,101513.31
2023-11-09T02:32:56.444Z,101515.00
2023-11-09T02:35:43.236Z,101512.97
2023-11-09T02:38:44.205Z,101501.72
2023-11-09T02:41:45.233Z,101504.22
2023-11-09T02:44:47.256Z,101498.25
2023-11-09T02:47:27.882Z,101497.97
2023-11-09T02:49:54.869Z,101514.78
2023-11-09T02:52:21.954Z,101504.78
2023-11-09T02:54:48.964Z,101506.47
2023-11-09T02:57:37.225Z,101510.25
2023-11-09T03:00:18.016Z,101493.63
2023-11-09T03:02:45.516Z,101490.16
2023-11-09T03:05:12.728Z,101487.97
2023-11-09T03:07:39.768Z,101483.81
2023-11-09T03:10:27.268Z,101480.13
2023-11-09T03:13:29.292Z,101473.69
2023-11-09T03:16:30.217Z,101458.63
2023-11-09T03:19:10.863Z,101461.69
2023-11-09T03:21:37.823Z,101463.50
2023-11-09T03:24:05.357Z,101463.59
2023-11-09T03:26:36.082Z,101456.22
2023-11-09T03:29:03.205Z,101456.88
2023-11-09T03:31:30.370Z,101454.41
2023-11-09T03:33:57.847Z,101448.72
2023-11-09T03:36:24.862Z,101446.44
2023-11-09T03:38:53.144Z,101438.41
2023-11-09T03:41:20.743Z,101445.91
2023-11-09T03:43:48.264Z,101444.81
2023-11-09T03:46:15.507Z,101445.72
2023-11-09T03:48:42.565Z,101450.63
2023-11-09T03:51:29.264Z,101447.59
2023-11-09T03:54:30.231Z,101444.34
2023-11-09T03:57:10.860Z,101437.72
2023-11-09T03:59:37.888Z,101428.69
2023-11-09T04:02:05.294Z,101430.69
2023-11-09T04:04:32.404Z,101430.03
2023-11-09T04:06:59.655Z,101427.09
2023-11-09T04:09:26.774Z,101433.41
2023-11-09T04:11:53.830Z,101411.16
2023-11-09T04:14:20.772Z,101407.16
2023-11-09T04:16:50.266Z,101409.75
2023-11-09T04:19:17.844Z,101403.34
2023-11-09T04:21:45.667Z,101403.03
2023-11-09T04:24:12.664Z,101406.25
2023-11-09T04:26:39.837Z,101409.03
2023-11-09T04:29:10.374Z,101409.78
2023-11-09T04:31:38.454Z,101406.25
2023-11-09T04:34:10.163Z,101402.56
2023-11-09T04:36:43.824Z,101398.41
2023-11-09T04:39:12.500Z,101389.03
2023-11-09T04:41:40.500Z,101388.25
2023-11-09T04:44:10.239Z,101395.31
2023-11-09T04:46:41.992Z,101394.41
2023-11-09T04:49:09.413Z,101397.59
2023-11-09T04:51:37.825Z,101389.47
2023-11-09T04:54:07.720Z,101393.75
2023-11-09T04:56:55.341Z,101384.06
2023-11-09T05:00:09.627Z,101381.16
2023-11-09T05:02:58.406Z,101378.38
2023-11-09T05:05:44.072Z,101379.88
2023-11-09T05:08:11.901Z,101385.41
2023-11-09T05:10:39.315Z,101387.59
2023-11-09T05:13:06.281Z,101385.00
2023-11-09T05:15:33.363Z,101388.84
2023-11-09T05:18:00.678Z,101382.69
2023-11-09T05:20:27.663Z,101379.78
2023-11-09T05:22:57.344Z,101376.09
2023-11-09T05:25:24.562Z,101383.31
2023-11-09T05:27:51.581Z,101379.13
2023-11-09T05:30:18.512Z,101381.09
2023-11-09T05:32:45.858Z,101385.13
2023-11-09T05:35:12.956Z,101381.41
2023-11-09T05:37:40.042Z,101377.06
2023-11-09T05:40:10.461Z,101376.72
2023-11-09T05:42:42.497Z,101383.63
2023-11-09T05:45:10.586Z,101377.34
2023-11-09T05:47:37.785Z,101369.03
2023-11-09T05:50:25.370Z,101379.00
2023-11-09T05:53:26.311Z,101379.78
2023-11-09T05:56:08.497Z,101386.50
2023-11-09T05:58:35.494Z,101376.69
2023-11-09T06:01:03.254Z,101375.16
2023-11-09T06:03:30.221Z,101370.97
2023-11-09T06:05:58.722Z,101374.34
2023-11-09T06:08:25.723Z,101373.59
2023-11-09T06:10:54.504Z,101373.31
2023-11-09T06:13:24.249Z,101369.31
2023-11-09T06:16:05.386Z,101368.41
2023-11-09T06:19:06.365Z,101368.88
2023-11-09T06:22:07.422Z,101374.84
2023-11-09T06:24:47.866Z,101378.28
2023-11-09T06:27:18.228Z,101371.88
2023-11-09T06:29:45.237Z,101382.88
2023-11-09T06:32:12.256Z,101379.66
2023-11-09T06:34:41.221Z,101387.53
2023-11-09T06:37:28.419Z,101385.13
2023-11-09T06:40:12.944Z,101379.88
2023-11-09T06:42:40.613Z,101379.72
2023-11-09T06:45:27.350Z,101387.72
2023-11-09T06:48:28.409Z,101381.56
2023-11-09T06:51:29.375Z,101381.41
2023-11-09T06:54:30.345Z,101387.28
2023-11-09T06:57:12.535Z,101386.03
2023-11-09T06:59:40.377Z,101395.59
2023-11-09T07:02:10.263Z,101389.59
2023-11-09T07:04:37.368Z,101394.38
2023-11-09T07:07:04.877Z,101393.16
2023-11-09T07:09:32.201Z,101391.94
2023-11-09T07:11:59.172Z,101407.63
2023-11-09T07:14:26.249Z,101403.94
2023-11-09T07:16:55.993Z,101395.94
2023-11-09T07:19:24.254Z,101395.47
2023-11-09T07:21:51.706Z,101397.94
2023-11-09T07:24:19.177Z,101407.66
2023-11-09T07:26:46.747Z,101409.13
2023-11-09T07:29:15.081Z,101418.91
2023-11-09T07:31:42.287Z,101418.03
2023-11-09T07:34:09.451Z,101406.13
2023-11-09T07:36:56.422Z,101400.00
2023-11-09T07:39:57.480Z,101407.78
2023-11-09T07:42:58.815Z,101404.16
2023-11-09T07:45:39.404Z,101404.16
2023-11-09T07:48:06.603Z,101407.72
2023-11-09T07:50:34.403Z,101395.94
2023-11-09T07:53:04.153Z,101394.97
2023-11-09T07:55:31.226Z,101402.09
2023-11-09T07:57:59.436Z,101395.72
2023-11-09T08:00:26.317Z,101395.34
2023-11-09T08:02:53.302Z,101389.94
2023-11-09T08:05:20.394Z,101396.47
2023-11-09T08:07:47.502Z,101398.31
2023-11-09T08:10:14.577Z,101410.06
2023-11-09T08:12:43.014Z,101407.19
2023-11-09T08:15:30.431Z,101416.59
2023-11-09T08:18:31.410Z,101412.38
2023-11-09T08:21:33.437Z,101397.09
2023-11-09T08:24:13.947Z,101393.56
2023-11-09T08:26:42.508Z,101399.31
2023-11-09T08:29:10.200Z,101399.88
2023-11-09T08:31:39.767Z,101390.69
2023-11-09T08:34:09.577Z,101389.53
2023-11-09T08:36:56.430Z,101391.66
2023-11-09T08:39:38.686Z,101377.56
2023-11-09T08:42:06.091Z,101392.13
2023-11-09T08:44:36.268Z,101390.53
2023-11-09T08:47:04.176Z,101391.75
2023-11-09T08:49:51.436Z,101385.91
2023-11-09T08:52:56.000Z,101376.13
2023-11-09T08:55:57.470Z,101385.59
2023-11-09T08:58:41.242Z,101383.38
2023-11-09T09:01:19.132Z,101383.69
2023-11-09T09:03:48.541Z,101383.66
2023-11-09T09:06:17.405Z,101382.53
2023-11-09T09:08:47.938Z,101379.53
2023-11-09T09:11:16.367Z,101373.69
2023-11-09T09:13:43.817Z,101374.72
2023-11-09T09:16:11.489Z,101368.97
2023-11-09T09:18:38.721Z,101362.91
2023-11-09T09:21:10.109Z,101374.75
2023-11-09T09:23:39.206Z,101385.31
2023-11-09T09:26:15.319Z,101377.03
2023-11-09T09:28:50.185Z,101379.75
2023-11-09T09:31:38.481Z,101377.88
2023-11-09T09:34:24.635Z,101383.88
2023-11-09T09:36:51.763Z,101388.25
2023-11-09T09:39:19.300Z,101393.53
2023-11-09T09:41:52.999Z,101386.84
2023-11-09T09:44:20.983Z,101383.97
2023-11-09T09:46:49.626Z,101380.94
2023-11-09T09:49:19.530Z,101377.78
2023-11-09T09:51:50.481Z,101382.03
2023-11-09T09:54:19.457Z,101374.41
2023-11-09T09:56:48.525Z,101371.44
2023-11-09T09:59:16.045Z,101363.91
2023-11-09T10:01:49.288Z,101359.84
2023-11-09T10:04:16.992Z,101353.06
2023-11-09T10:06:46.111Z,101357.78
2023-11-09T10:09:13.436Z,101355.56
2023-11-09T10:11:40.404Z,101361.28
2023-11-09T10:14:07.889Z,101359.50
2023-11-09T10:16:35.555Z,101342.59
2023-11-09T10:19:03.769Z,101342.00
2023-11-09T10:21:35.243Z,101339.50
2023-11-09T10:24:10.750Z,101330.94
2023-11-09T10:27:14.548Z,101321.53
2023-11-09T10:29:55.178Z,101322.97
2023-11-09T10:32:22.419Z,101319.59
2023-11-09T10:34:52.433Z,101317.84
2023-11-09T10:37:19.539Z,101326.63
2023-11-09T10:39:48.170Z,101325.94
2023-11-09T10:42:18.672Z,101316.25
2023-11-09T10:44:46.698Z,101308.09
2023-11-09T10:47:15.054Z,101313.06
2023-11-09T10:49:45.744Z,101304.00
2023-11-09T10:52:16.060Z,101303.75
2023-11-09T10:54:45.951Z,101316.53
2023-11-09T10:57:15.046Z,101305.81
2023-11-09T10:59:43.616Z,101308.91
2023-11-09T11:02:18.019Z,101311.59
2023-11-09T11:04:51.085Z,101310.84
2023-11-09T11:07:40.269Z,101308.34
2023-11-09T11:10:11.679Z,101307.00
2023-11-09T11:12:41.720Z,101300.97
2023-11-09T11:15:11.500Z,101306.75
2023-11-09T11:18:24.583Z,101287.09
2023-11-09T11:21:43.533Z,101292.19
2023-11-09T11:25:10.599Z,101284.13
2023-11-09T11:28:12.907Z,101269.19
2023-11-09T11:30:41.470Z,101259.66
2023-11-09T11:33:17.378Z,101248.25
2023-11-09T11:35:50.018Z,101247.66
2023-11-09T11:38:17.995Z,101237.28
2023-11-09T11:40:47.423Z,101232.97
2023-11-09T11:43:17.049Z,101239.94
2023-11-09T11:45:48.066Z,101244.13
2023-11-09T11:48:26.800Z,101239.66
2023-11-09T11:50:57.019Z,101233.81
2023-11-09T11:53:29.733Z,101227.94
2023-11-09T11:56:03.910Z,101231.56
2023-11-09T11:59:08.728Z,101228.88
2023-11-09T12:02:09.546Z,101220.69
2023-11-09T12:04:37.514Z,101217.97
2023-11-09T12:07:11.648Z,101220.97
2023-11-09T12:09:39.147Z,101205.91
2023-11-09T12:12:11.569Z,101214.78
2023-11-09T12:14:59.564Z,101215.41
2023-11-09T12:18:00.617Z,101206.72
2023-11-09T12:21:02.571Z,101204.88
2023-11-09T12:23:56.958Z,101198.66
2023-11-09T12:26:26.838Z,101201.09
2023-11-09T12:28:56.427Z,101192.56
2023-11-09T12:31:27.509Z,101200.13
2023-11-09T12:34:08.995Z,101197.16
2023-11-09T12:36:44.783Z,101196.69
2023-11-09T12:39:24.924Z,101197.44
2023-11-09T12:41:52.947Z,101191.69
2023-11-09T12:44:43.866Z,101185.09
2023-11-09T12:47:45.568Z,101177.13
2023-11-09T12:50:49.581Z,101158.53
2023-11-09T12:53:34.620Z,101150.28
2023-11-09T12:56:03.286Z,101156.41
2023-11-09T12:58:31.208Z,101151.91
2023-11-09T13:00:58.697Z,101152.81
2023-11-09T13:03:25.934Z,101157.31
2023-11-09T13:05:53.216Z,101152.28
2023-11-09T13:08:20.177Z,101154.50
2023-11-09T13:11:09.566Z,101155.31
2023-11-09T13:14:16.577Z,101154.13
2023-11-09T13:17:10.581Z,101149.13
2023-11-09T13:19:52.521Z,101149.38
2023-11-09T13:22:19.896Z,101149.75
2023-11-09T13:24:49.437Z,101141.47
2023-11-09T13:27:25.627Z,101143.84
2023-11-09T13:29:53.393Z,101148.25
2023-11-09T13:32:28.810Z,101146.97
2023-11-09T13:35:21.690Z,101141.63
2023-11-09T13:37:57.977Z,101143.88
2023-11-09T13:40:26.031Z,101140.69
2023-11-09T13:43:09.843Z,101158.38
2023-11-09T13:45:56.581Z,101143.03
2023-11-09T13:48:58.681Z,101144.75
2023-11-09T13:52:08.621Z,101144.75
2023-11-09T13:55:20.673Z,101139.91
2023-11-09T13:58:31.804Z,101143.88
2023-11-09T14:01:39.697Z,101141.19
2023-11-09T14:04:40.655Z,101136.22
2023-11-09T14:07:42.116Z,101133.28
2023-11-09T14:10:30.120Z,101134.53
2023-11-09T14:13:10.776Z,101126.88
2023-11-09T14:15:51.146Z,101136.00
2023-11-09T14:18:27.549Z,101131.88
2023-11-09T14:21:08.371Z,101130.28
2023-11-09T14:23:38.599Z,101132.44
2023-11-09T14:26:06.100Z,101136.19
2023-11-09T14:28:34.492Z,101136.34
2023-11-09T14:31:07.343Z,101132.03
2023-11-09T14:33:34.626Z,101132.16
2023-11-09T14:36:03.206Z,101137.03
2023-11-09T14:38:30.886Z,101138.06
2023-11-09T14:41:02.097Z,101130.81
2023-11-09T14:43:49.653Z,101130.38
2023-11-09T14:46:50.705Z,101119.66
2023-11-09T14:49:59.726Z,101115.06
2023-11-09T14:53:07.198Z,101106.38
2023-11-09T14:56:06.679Z,101112.22
2023-11-09T14:59:08.767Z,101103.13
2023-11-09T15:02:10.683Z,101111.03
2023-11-09T15:05:12.978Z,101095.06
2023-11-09T15:07:48.362Z,101090.41
2023-11-09T15:10:15.896Z,101087.03
2023-11-09T15:12:51.469Z,101083.22
2023-11-09T15:15:18.860Z,101081.97
2023-11-09T15:17:47.017Z,101089.34
2023-11-09T15:20:23.493Z,101084.75
2023-11-09T15:22:57.001Z,101074.59
2023-11-09T15:25:32.344Z,101073.50
2023-11-09T15:28:03.409Z,101084.91
2023-11-09T15:30:31.379Z,101073.97
2023-11-09T15:32:59.636Z,101075.03
2023-11-09T15:35:29.598Z,101064.44
2023-11-09T15:38:00.556Z,101072.94
2023-11-09T15:41:09.796Z,101059.94
2023-11-09T15:43:15.455Z,101070.47
2023-11-09T15:45:43.126Z,101067.63
2023-11-09T15:48:10.753Z,101062.09
2023-11-09T15:50:38.516Z,101066.78
2023-11-09T15:53:06.954Z,101068.03
2023-11-09T15:55:53.773Z,101060.94
2023-11-09T15:58:55.721Z,101071.28
2023-11-09T16:01:57.814Z,101065.25
2023-11-09T16:04:52.721Z,101068.19
2023-11-09T16:07:57.732Z,101068.63
2023-11-09T16:10:40.132Z,101062.31
2023-11-09T16:13:07.150Z,101069.31
2023-11-09T16:15:34.193Z,101068.81
2023-11-09T16:18:01.757Z,101070.72
2023-11-09T16:20:35.856Z,101075.03
2023-11-09T16:23:08.978Z,101080.66
2023-11-09T16:25:47.839Z,101058.69
2023-11-09T16:28:22.008Z,101066.19
2023-11-09T16:30:50.090Z,101057.22
2023-11-09T16:33:18.645Z,101053.84
2023-11-09T16:35:46.813Z,101051.06
2023-11-09T16:38:14.269Z,101057.16
2023-11-09T16:40:41.681Z,101055.56
2023-11-09T16:43:11.492Z,101054.88
2023-11-09T16:45:38.862Z,101055.06
2023-11-09T16:48:06.626Z,101051.91
2023-11-09T16:50:53.734Z,101058.34
2023-11-09T16:53:34.540Z,101046.53
2023-11-09T16:56:02.099Z,101046.88
2023-11-09T16:58:49.744Z,101049.06
2023-11-09T17:01:50.777Z,101050.88
2023-11-09T17:04:44.798Z,101046.63
2023-11-09T17:07:43.876Z,101047.03
2023-11-09T17:10:45.767Z,101048.97
2023-11-09T17:13:26.394Z,101045.56
2023-11-09T17:15:53.465Z,101045.09
2023-11-09T17:18:20.851Z,101043.50
2023-11-09T17:20:48.015Z,101046.00
2023-11-09T17:23:15.704Z,101047.09
2023-11-09T17:25:42.766Z,101046.75
2023-11-09T17:28:09.779Z,101026.66
2023-11-09T17:30:56.809Z,101024.03
2023-11-09T17:33:57.750Z,101017.91
2023-11-09T17:36:38.306Z,101028.19
2023-11-09T17:39:05.371Z,101018.41
2023-11-09T17:41:32.402Z,101019.31
2023-11-09T17:44:19.751Z,101019.50
2023-11-09T17:47:00.377Z,101016.09
2023-11-09T17:49:27.410Z,101014.59
2023-11-09T17:51:54.423Z,101011.94
2023-11-09T17:54:21.642Z,101013.47
2023-11-09T17:56:48.662Z,101008.47
2023-11-09T17:59:15.683Z,101005.97
2023-11-09T18:01:42.857Z,101000.69
2023-11-09T18:04:11.254Z,100999.88
2023-11-09T18:06:51.744Z,101003.59
2023-11-09T18:09:52.757Z,100988.25
2023-11-09T18:12:55.756Z,100986.53
2023-11-09T18:15:36.552Z,100988.81
2023-11-09T18:18:05.146Z,100987.28
2023-11-09T18:20:35.441Z,100988.59
2023-11-09T18:23:03.396Z,100985.31
2023-11-09T18:25:34.508Z,100980.53
2023-11-09T18:28:01.608Z,100981.72
2023-11-09T18:30:28.576Z,100980.00
2023-11-09T18:32:55.777Z,100983.75
2023-11-09T18:35:24.055Z,100983.81
2023-11-09T18:37:51.067Z,100974.22
2023-11-09T18:40:18.506Z,100971.00
2023-11-09T18:42:45.834Z,100963.31
2023-11-09T18:45:15.395Z,100963.44
2023-11-09T18:47:42.502Z,100960.38
2023-11-09T18:52:42.519Z,100953.78
2023-11-09T18:55:30.991Z,100947.97
2023-11-09T18:58:32.778Z,100949.44
2023-11-09T19:01:14.254Z,100948.72
2023-11-09T19:06:12.261Z,100938.59
2023-11-09T19:08:39.493Z,100935.66
2023-11-09T19:11:11.478Z,100932.75
2023-11-09T19:13:39.169Z,100943.09
2023-11-09T19:16:07.563Z,100935.72
2023-11-09T19:18:35.362Z,100931.09
2023-11-09T19:23:32.428Z,100940.31
2023-11-09T19:25:59.507Z,100929.47
2023-11-09T19:28:30.708Z,100938.34
2023-11-09T19:31:18.824Z,100926.97
2023-11-09T19:34:19.792Z,100931.72
2023-11-09T19:37:20.793Z,100931.22
2023-11-09T19:40:22.847Z,100931.50
2023-11-09T19:43:23.864Z,100929.22
2023-11-09T19:46:04.746Z,100937.81
2023-11-09T19:48:31.871Z,100934.78
2023-11-09T19:50:59.210Z,100938.25
2023-11-09T19:53:26.213Z,100931.91
2023-11-09T19:55:53.296Z,100935.41
2023-11-09T19:58:47.844Z,100933.03
2023-11-09T20:01:29.350Z,100929.63
2023-11-09T20:03:56.529Z,100929.22
2023-11-09T20:06:30.885Z,100930.94
2023-11-09T20:09:17.842Z,100925.81
2023-11-09T20:12:18.891Z,100928.75
2023-11-09T20:14:54.669Z,100922.34
2023-11-09T20:17:26.102Z,100916.75
2023-11-09T20:19:53.251Z,100921.72
2023-11-09T20:22:20.312Z,100920.75
2023-11-09T20:24:48.283Z,100918.06
2023-11-09T20:27:15.357Z,100917.91
2023-11-09T20:29:43.487Z,100915.13
2023-11-09T20:32:12.764Z,100917.47
2023-11-09T20:34:39.853Z,100920.16
2023-11-09T20:37:08.139Z,100915.81
2023-11-09T20:39:40.048Z,100907.56
2023-11-09T20:42:07.482Z,100911.88
2023-11-09T20:44:34.764Z,100910.84
2023-11-09T20:47:23.863Z,100914.84
2023-11-09T20:50:15.465Z,100911.94
2023-11-09T20:52:45.927Z,100912.84
2023-11-09T20:55:19.559Z,100913.53
2023-11-09T20:58:08.892Z,100913.47
2023-11-09T21:01:00.513Z,100913.06
2023-11-09T21:03:34.062Z,100909.03
2023-11-09T21:06:01.335Z,100917.47
2023-11-09T21:08:48.850Z,100914.44
2023-11-09T21:11:49.853Z,100910.69
2023-11-09T21:14:30.830Z,100905.91
2023-11-09T21:16:58.136Z,100900.09
2023-11-09T21:19:26.755Z,100897.56
2023-11-09T21:21:55.126Z,100895.69
2023-11-09T21:24:24.857Z,100906.53
2023-11-09T21:26:54.445Z,100908.69
2023-11-09T21:29:22.466Z,100910.97
2023-11-09T21:32:10.055Z,100907.75
2023-11-09T21:35:10.931Z,100897.84
2023-11-09T21:37:51.619Z,100883.88
2023-11-09T21:40:20.933Z,100873.38
2023-11-09T21:42:48.639Z,100868.34
2023-11-09T21:45:36.957Z,100870.41
2023-11-09T21:48:31.007Z,100866.94
2023-11-09T21:51:11.756Z,100870.41
2023-11-09T21:53:41.529Z,100865.34
2023-11-09T21:56:28.914Z,100860.53
2023-11-09T21:59:29.974Z,100841.16
2023-11-09T22:02:10.451Z,100833.88
2023-11-09T22:04:39.080Z,100829.53
2023-11-09T22:07:06.578Z,100818.63
2023-11-09T22:09:34.512Z,100818.28
2023-11-09T22:12:02.611Z,100816.53
2023-11-09T22:14:30.542Z,100828.16
2023-11-09T22:17:00.684Z,100832.66
2023-11-09T22:19:27.597Z,100822.59
2023-11-09T22:21:54.618Z,100822.06
2023-11-09T22:24:21.568Z,100825.03
2023-11-09T22:26:49.264Z,100816.97
2023-11-09T22:29:16.522Z,100810.66
2023-11-09T22:31:43.757Z,100813.91
2023-11-09T22:34:10.829Z,100812.69
2023-11-09T22:36:38.978Z,100806.81
2023-11-09T22:39:07.071Z,100808.09
2023-11-09T22:41:34.129Z,100796.72
2023-11-09T22:44:01.323Z,100796.03
2023-11-09T22:46:28.450Z,100792.47
2023-11-09T22:48:55.841Z,100795.59
2023-11-09T22:51:23.575Z,100793.78
2023-11-09T22:53:51.612Z,100792.94
2023-11-09T22:56:18.671Z,100790.47
2023-11-09T22:58:46.791Z,100787.19
2023-11-09T23:01:13.840Z,100774.66
2023-11-09T23:03:42.752Z,100775.00
2023-11-09T23:06:12.895Z,100772.31
2023-11-09T23:08:40.084Z,100765.47
2023-11-09T23:11:07.093Z,100751.88
2023-11-09T23:13:34.183Z,100752.59
2023-11-09T23:16:01.136Z,100756.53
2023-11-09T23:18:32.304Z,100747.94
2023-11-09T23:20:59.316Z,100748.19
2023-11-09T23:23:28.872Z,100751.31
2023-11-09T23:25:55.824Z,100748.78
2023-11-09T23:28:24.268Z,100748.22
2023-11-09T23:30:51.262Z,100742.13
2023-11-09T23:33:18.315Z,100744.44
2023-11-09T23:35:45.342Z,100736.69
2023-11-09T23:38:12.258Z,100738.44
2023-11-09T23:40:39.192Z,100744.47
2023-11-09T23:43:06.336Z,100739.19
2023-11-09T23:45:53.954Z,100743.19
2023-11-09T23:48:54.983Z,100736.84
2023-11-09T23:51:35.497Z,100740.66
2023-11-09T23:54:02.564Z,100735.28
2023-11-09T23:56:42.954Z,100733.03
2023-11-09T23:59:46.936Z,100736.25
